Time;durP1;ratioP1;P1;durP2;ratioP2;P2;SDS_P1;SDS_P2;PMS_P1;PMS_P2;Temp;Humidity;BMP_temperature;BMP_pressure;BME280_temperature;BME280_humidity;BME280_pressure;Samples;Min_cycle;Max_cycle;Signal;HPM_P1;HPM_P2
2021/10/06 00:01:09;;;;;;;6.13;2.30;;;12.20;63.60;;;;;;4958665;28;20405;-75
2021/10/06 00:03:35;;;;;;;7.80;2.43;;;12.10;64.70;;;;;;4958016;28;20400;-76
2021/10/06 00:06:01;;;;;;;4.97;1.95;;;12.00;65.60;;;;;;4957311;28;20859;-74
2021/10/06 00:08:26;;;;;;;7.03;2.20;;;12.00;64.90;;;;;;4954263;28;20401;-77
2021/10/06 00:10:52;;;;;;;7.60;2.03;;;12.10;64.30;;;;;;4954189;28;20413;-77
2021/10/06 00:13:18;;;;;;;6.30;1.90;;;12.10;62.70;;;;;;4957245;28;20919;-76
2021/10/06 00:15:45;;;;;;;4.88;1.55;;;12.30;59.60;;;;;;4973400;28;20392;-76
2021/10/06 00:18:12;;;;;;;8.37;2.10;;;12.20;60.10;;;;;;4973077;28;20499;-75
2021/10/06 00:20:37;;;;;;;7.10;2.10;;;12.20;60.20;;;;;;4972909;28;20400;-75
2021/10/06 00:23:03;;;;;;;8.15;1.80;;;12.10;61.30;;;;;;4972598;28;20488;-75
2021/10/06 00:25:29;;;;;;;5.43;2.08;;;12.10;61.60;;;;;;4972761;28;20443;-75
2021/10/06 00:27:55;;;;;;;5.68;2.17;;;12.00;61.30;;;;;;4964859;28;20434;-75
2021/10/06 00:30:21;;;;;;;4.63;1.83;;;11.90;62.00;;;;;;4962655;28;20396;-75
2021/10/06 00:32:46;;;;;;;6.07;2.00;;;11.90;62.40;;;;;;4972409;28;20396;-78
2021/10/06 00:35:12;;;;;;;4.70;1.80;;;11.90;62.80;;;;;;4971413;28;20443;-75
2021/10/06 00:37:38;;;;;;;4.03;1.70;;;11.80;63.30;;;;;;4968564;28;20412;-76
2021/10/06 00:40:05;;;;;;;6.10;1.90;;;11.80;63.50;;;;;;4953270;28;20497;-76
2021/10/06 00:42:31;;;;;;;5.63;1.65;;;11.70;64.10;;;;;;4961435;28;20433;-77
2021/10/06 00:44:57;;;;;;;12.45;2.10;;;11.70;64.80;;;;;;4991925;28;20448;-76
2021/10/06 00:47:23;;;;;;;5.50;1.80;;;11.70;65.70;;;;;;4988306;28;20386;-75
2021/10/06 00:49:48;;;;;;;3.40;1.67;;;11.70;65.60;;;;;;4953278;28;20404;-74
2021/10/06 00:52:45;;;;;;;7.65;1.90;;;11.70;65.50;;;;;;4954425;28;20404;-75
2021/10/06 00:55:13;;;;;;;5.70;1.80;;;11.60;66.80;;;;;;4952962;28;20886;-76
2021/10/06 00:57:39;;;;;;;3.30;1.70;;;11.70;65.50;;;;;;4959631;28;20442;-77
2021/10/06 01:00:06;;;;;;;8.88;2.45;;;11.70;66.30;;;;;;4977734;28;20417;-76
2021/10/06 01:02:32;;;;;;;10.50;2.30;;;11.60;67.50;;;;;;4958921;28;20409;-75
2021/10/06 01:04:57;;;;;;;10.73;2.30;;;11.60;67.90;;;;;;4952678;28;20946;-76
2021/10/06 01:07:23;;;;;;;11.93;2.10;;;11.60;67.90;;;;;;4953152;28;21046;-76
2021/10/06 01:09:49;;;;;;;11.50;2.03;;;11.60;68.40;;;;;;4952843;28;20406;-75
2021/10/06 01:12:14;;;;;;;6.37;2.30;;;11.60;68.30;;;;;;4952640;28;20485;-76
2021/10/06 01:14:40;;;;;;;4.70;2.20;;;11.60;68.20;;;;;;4956977;28;20458;-76
2021/10/06 01:17:06;;;;;;;8.82;2.10;;;11.60;67.80;;;;;;4955730;28;20405;-76
2021/10/06 01:19:32;;;;;;;8.68;2.20;;;11.60;67.30;;;;;;4974013;28;20423;-76
2021/10/06 01:21:58;;;;;;;5.65;2.20;;;11.70;66.90;;;;;;4973155;28;20910;-77
2021/10/06 01:24:25;;;;;;;8.80;1.80;;;11.60;67.20;;;;;;4974478;28;20426;-76
2021/10/06 01:26:51;;;;;;;9.55;2.60;;;11.70;65.80;;;;;;4974328;28;20568;-77
2021/10/06 01:29:17;;;;;;;9.73;2.10;;;11.70;65.50;;;;;;4957855;28;20401;-74
2021/10/06 01:31:44;;;;;;;7.70;2.40;;;11.60;66.80;;;;;;4970020;28;20439;-76
2021/10/06 01:34:11;;;;;;;9.10;2.55;;;11.60;67.60;;;;;;4971900;28;20407;-75
2021/10/06 01:36:38;;;;;;;6.55;2.40;;;11.60;66.90;;;;;;4971979;28;20408;-75
2021/10/06 01:39:07;;;;;;;10.43;2.67;;;11.60;67.60;;;;;;4957781;28;20422;-74
2021/10/06 01:41:35;;;;;;;11.60;3.20;;;11.70;66.80;;;;;;4952045;28;20890;-75
2021/10/06 01:44:01;;;;;;;9.85;2.50;;;11.70;65.30;;;;;;4983544;28;20402;-75
2021/10/06 01:46:27;;;;;;;8.23;2.50;;;11.70;65.30;;;;;;4991867;28;20472;-74
2021/10/06 01:48:53;;;;;;;10.57;2.63;;;11.70;65.80;;;;;;4969703;28;20406;-75
2021/10/06 01:51:19;;;;;;;11.07;2.80;;;11.60;66.40;;;;;;4962553;28;20405;-75
2021/10/06 01:53:44;;;;;;;11.27;2.90;;;11.60;66.90;;;;;;4960064;28;20398;-75
2021/10/06 01:56:10;;;;;;;9.30;2.50;;;11.70;65.70;;;;;;4954870;29;20405;-76
2021/10/06 01:58:36;;;;;;;7.97;2.40;;;11.70;66.50;;;;;;4962221;28;20428;-75
2021/10/06 02:01:04;;;;;;;8.32;2.70;;;11.60;65.20;;;;;;4972871;28;20408;-78
2021/10/06 02:03:29;;;;;;;10.35;2.70;;;11.70;64.80;;;;;;4974076;28;20484;-79
2021/10/06 02:05:56;;;;;;;12.70;2.10;;;11.80;63.30;;;;;;4974425;28;20466;-77
2021/10/06 02:08:21;;;;;;;13.60;3.33;;;11.90;62.30;;;;;;4974413;28;20407;-76
2021/10/06 02:10:47;;;;;;;7.43;2.70;;;12.00;60.30;;;;;;4974475;28;20388;-77
2021/10/06 02:13:13;;;;;;;14.30;2.80;;;12.00;59.70;;;;;;4975150;28;20388;-76
2021/10/06 02:15:39;;;;;;;8.85;2.47;;;12.00;60.20;;;;;;4977552;28;20934;-73
2021/10/06 02:18:05;;;;;;;9.03;2.50;;;12.10;57.80;;;;;;4970270;28;20513;-76
2021/10/06 02:20:30;;;;;;;9.17;2.70;;;12.00;58.50;;;;;;4956376;28;20911;-73
2021/10/06 02:22:56;;;;;;;12.83;2.80;;;12.00;59.00;;;;;;4968325;28;20439;-74
2021/10/06 02:25:22;;;;;;;8.87;2.40;;;12.00;59.10;;;;;;4975030;28;20396;-74
2021/10/06 02:27:47;;;;;;;9.07;2.90;;;12.10;58.90;;;;;;4974940;28;20433;-73
2021/10/06 02:30:14;;;;;;;8.40;2.93;;;12.10;58.10;;;;;;4966832;28;20402;-76
2021/10/06 02:32:40;;;;;;;7.85;2.90;;;12.30;56.20;;;;;;4955468;28;20404;-75
2021/10/06 02:35:06;;;;;;;9.80;3.13;;;12.30;56.90;;;;;;4955631;28;20477;-75
2021/10/06 02:37:32;;;;;;;15.17;3.37;;;12.50;54.20;;;;;;4955303;28;20390;-75
2021/10/06 02:39:58;;;;;;;17.23;3.37;;;12.50;54.20;;;;;;4955559;28;20493;-75
2021/10/06 02:42:23;;;;;;;11.40;2.87;;;12.50;54.60;;;;;;4961952;28;20427;-74
2021/10/06 02:44:49;;;;;;;11.70;3.60;;;12.60;52.60;;;;;;4994188;28;20418;-75
2021/10/06 02:47:14;;;;;;;10.80;3.00;;;12.60;52.20;;;;;;4994581;28;20379;-75
2021/10/06 02:49:40;;;;;;;11.43;2.90;;;12.60;52.30;;;;;;4960807;28;20402;-75
2021/10/06 02:52:05;;;;;;;9.53;2.73;;;12.70;51.30;;;;;;4956016;28;20402;-77
2021/10/06 02:54:31;;;;;;;9.03;2.73;;;12.70;51.40;;;;;;4955701;29;20532;-75
2021/10/06 02:57:01;;;;;;;15.55;3.47;;;12.70;51.20;;;;;;4956023;28;20432;-75
2021/10/06 02:59:34;;;;;;;7.90;3.20;;;12.60;51.80;;;;;;4970166;28;20517;-76
2021/10/06 03:01:59;;;;;;;11.63;3.08;;;12.70;51.00;;;;;;4974844;28;20404;-75
2021/10/06 03:04:26;;;;;;;9.33;2.87;;;12.50;52.00;;;;;;4974743;28;20395;-75
2021/10/06 03:06:52;;;;;;;10.52;2.75;;;12.40;53.80;;;;;;4974551;28;20849;-75
2021/10/06 03:09:18;;;;;;;9.38;2.72;;;12.30;53.50;;;;;;4960496;28;20409;-74
2021/10/06 03:11:44;;;;;;;13.18;2.75;;;12.30;54.90;;;;;;4954664;28;20408;-73
2021/10/06 03:14:10;;;;;;;12.97;2.93;;;12.40;53.20;;;;;;4954839;28;20426;-73
2021/10/06 03:16:36;;;;;;;8.55;2.60;;;12.50;52.70;;;;;;4954631;28;20747;-73
2021/10/06 03:19:02;;;;;;;9.07;2.58;;;12.50;52.40;;;;;;4955000;28;20501;-75
2021/10/06 03:21:27;;;;;;;8.10;2.45;;;12.50;51.80;;;;;;4954925;28;20441;-73
2021/10/06 03:23:53;;;;;;;7.27;2.53;;;12.50;52.10;;;;;;4973913;28;20388;-73
2021/10/06 03:26:19;;;;;;;10.50;2.80;;;12.50;52.00;;;;;;4973954;28;20425;-73
2021/10/06 03:28:44;;;;;;;8.30;2.87;;;12.30;53.30;;;;;;4973008;28;20408;-73
2021/10/06 03:31:10;;;;;;;8.02;2.50;;;12.40;52.60;;;;;;4958974;28;20418;-73
2021/10/06 03:33:35;;;;;;;10.52;3.30;;;12.50;52.70;;;;;;4954829;29;20469;-75
2021/10/06 03:36:01;;;;;;;7.00;2.40;;;12.50;51.50;;;;;;4954896;28;20397;-75
2021/10/06 03:38:26;;;;;;;10.43;3.00;;;12.60;50.80;;;;;;4960041;28;20902;-73
2021/10/06 03:40:52;;;;;;;9.67;2.47;;;12.60;49.90;;;;;;4973541;28;20483;-75
2021/10/06 03:43:18;;;;;;;9.77;2.50;;;12.60;50.40;;;;;;4976510;28;20402;-74
2021/10/06 03:45:43;;;;;;;13.37;2.60;;;12.60;50.20;;;;;;4993710;28;20541;-74
2021/10/06 03:48:09;;;;;;;12.30;2.80;;;12.60;49.90;;;;;;4985761;28;20454;-73
2021/10/06 03:50:35;;;;;;;13.43;3.50;;;12.50;50.40;;;;;;4954949;28;20536;-74
2021/10/06 03:53:04;;;;;;;7.53;2.50;;;12.60;50.30;;;;;;4954395;28;20386;-74
2021/10/06 03:55:30;;;;;;;9.23;2.70;;;12.60;49.80;;;;;;4954397;28;20401;-75
2021/10/06 03:57:55;;;;;;;17.25;3.50;;;12.50;50.20;;;;;;4960093;28;20394;-74
2021/10/06 04:00:21;;;;;;;11.53;3.00;;;12.60;49.60;;;;;;4979547;28;20485;-73
2021/10/06 04:02:47;;;;;;;14.95;3.40;;;12.50;50.30;;;;;;4960112;28;20397;-73
2021/10/06 04:05:13;;;;;;;8.60;2.77;;;12.60;49.70;;;;;;4954542;28;21186;-74
2021/10/06 04:07:38;;;;;;;13.45;3.00;;;12.60;49.20;;;;;;4956437;28;20867;-74
2021/10/06 04:10:05;;;;;;;14.93;3.80;;;12.70;48.60;;;;;;4953889;28;20786;-74
2021/10/06 04:12:31;;;;;;;14.32;3.10;;;12.60;48.80;;;;;;4955706;28;20415;-74
2021/10/06 04:14:56;;;;;;;9.90;3.10;;;12.60;48.60;;;;;;4957038;28;20401;-74
2021/10/06 04:17:22;;;;;;;10.90;2.60;;;12.60;48.30;;;;;;4957116;29;20429;-74
2021/10/06 04:19:47;;;;;;;10.73;3.00;;;12.70;47.90;;;;;;4970546;28;20424;-74
2021/10/06 04:22:13;;;;;;;8.70;2.90;;;12.70;47.50;;;;;;4972804;28;20478;-74
2021/10/06 04:24:39;;;;;;;10.63;3.40;;;12.70;47.10;;;;;;4973520;28;20872;-74
2021/10/06 04:27:04;;;;;;;8.50;3.00;;;12.80;46.80;;;;;;4974219;28;20380;-74
2021/10/06 04:29:30;;;;;;;9.75;3.38;;;12.70;47.10;;;;;;4964992;28;20960;-72
2021/10/06 04:31:55;;;;;;;6.63;2.50;;;12.70;47.60;;;;;;4976850;28;20479;-75
2021/10/06 04:34:21;;;;;;;9.13;2.60;;;12.70;47.60;;;;;;4976978;28;20392;-75
2021/10/06 04:36:47;;;;;;;12.90;2.90;;;12.60;47.70;;;;;;4976233;28;20399;-76
2021/10/06 04:39:13;;;;;;;11.18;2.40;;;12.60;48.00;;;;;;4964589;28;20438;-74
2021/10/06 04:41:38;;;;;;;7.80;2.85;;;12.60;48.00;;;;;;4955689;28;20394;-73
2021/10/06 04:44:04;;;;;;;9.60;3.13;;;12.60;47.90;;;;;;4987713;28;20406;-74
2021/10/06 04:46:30;;;;;;;8.95;3.25;;;12.60;47.50;;;;;;4990736;28;20846;-73
2021/10/06 04:48:56;;;;;;;8.05;2.80;;;12.60;47.90;;;;;;4974506;28;20409;-75
2021/10/06 04:51:23;;;;;;;7.65;2.80;;;12.60;48.70;;;;;;4953407;28;20477;-75
2021/10/06 04:53:48;;;;;;;10.43;2.88;;;12.60;47.20;;;;;;4953038;29;20473;-75
2021/10/06 04:56:14;;;;;;;9.45;2.72;;;12.70;47.20;;;;;;4953289;28;20448;-75
2021/10/06 04:58:40;;;;;;;8.32;2.28;;;12.80;46.00;;;;;;4958762;28;20433;-75
2021/10/06 05:01:05;;;;;;;11.70;2.67;;;12.80;46.00;;;;;;4973847;28;20466;-76
2021/10/06 05:03:31;;;;;;;7.53;2.10;;;12.70;46.70;;;;;;4972313;28;20399;-74
2021/10/06 05:05:56;;;;;;;10.07;2.50;;;12.60;47.50;;;;;;4972213;28;20403;-76
2021/10/06 05:08:22;;;;;;;12.97;2.80;;;12.60;47.70;;;;;;4971247;28;20411;-75
2021/10/06 05:10:47;;;;;;;7.67;2.70;;;12.60;47.70;;;;;;4972146;28;20950;-75
2021/10/06 05:13:13;;;;;;;7.40;2.33;;;12.70;46.70;;;;;;4973238;28;20383;-75
2021/10/06 05:15:38;;;;;;;11.15;2.60;;;12.70;46.40;;;;;;4972414;28;20488;-75
2021/10/06 05:18:04;;;;;;;8.90;2.75;;;12.70;46.80;;;;;;4972042;28;20391;-75
2021/10/06 05:20:30;;;;;;;11.05;2.63;;;12.60;47.40;;;;;;4955775;28;20413;-73
2021/10/06 05:22:55;;;;;;;9.10;2.70;;;12.60;46.90;;;;;;4968544;28;20388;-73
2021/10/06 05:25:21;;;;;;;9.82;2.67;;;12.60;47.30;;;;;;4974618;28;20885;-76
2021/10/06 05:27:47;;;;;;;9.45;2.53;;;12.60;46.80;;;;;;4973559;28;20897;-74
2021/10/06 05:30:14;;;;;;;10.88;2.72;;;12.60;47.10;;;;;;4964325;28;20469;-75
2021/10/06 05:32:40;;;;;;;14.93;2.90;;;12.60;47.20;;;;;;4953937;28;20397;-74
2021/10/06 05:35:07;;;;;;;9.98;2.50;;;12.60;46.30;;;;;;4954782;28;20396;-73
2021/10/06 05:37:32;;;;;;;14.20;2.83;;;12.60;46.10;;;;;;4952692;28;20406;-73
2021/10/06 05:39:58;;;;;;;13.60;2.70;;;12.60;46.00;;;;;;4969576;28;20442;-74
2021/10/06 05:42:23;;;;;;;8.57;2.90;;;12.70;46.20;;;;;;4975456;28;20408;-74
2021/10/06 05:44:49;;;;;;;11.13;2.77;;;12.60;46.40;;;;;;4993221;28;20382;-71
2021/10/06 05:47:14;;;;;;;9.57;3.47;;;12.70;46.20;;;;;;4990979;28;20412;-72
2021/10/06 05:49:40;;;;;;;7.17;2.70;;;12.80;45.40;;;;;;4964570;28;20397;-73
2021/10/06 05:52:06;;;;;;;11.30;2.20;;;12.80;45.00;;;;;;4958030;28;20393;-73
2021/10/06 05:54:31;;;;;;;7.82;2.30;;;12.90;44.50;;;;;;4960186;28;20394;-72
2021/10/06 05:56:57;;;;;;;10.43;2.95;;;12.90;44.80;;;;;;4959907;28;20895;-73
2021/10/06 05:59:22;;;;;;;8.68;2.50;;;12.90;44.00;;;;;;4956331;28;20428;-76
2021/10/06 06:01:48;;;;;;;7.27;2.73;;;12.90;44.50;;;;;;4956172;28;20911;-73
2021/10/06 06:04:17;;;;;;;9.40;2.67;;;12.90;44.10;;;;;;4957113;28;20393;-74
2021/10/06 06:06:45;;;;;;;7.60;2.40;;;12.90;44.30;;;;;;4957429;28;20771;-74
2021/10/06 06:09:12;;;;;;;8.80;2.40;;;13.00;45.00;;;;;;4961560;28;20485;-75
2021/10/06 06:11:38;;;;;;;9.68;2.72;;;13.00;44.40;;;;;;4961890;28;20406;-74
2021/10/06 06:14:05;;;;;;;9.43;3.00;;;13.00;45.20;;;;;;4961993;28;20588;-73
2021/10/06 06:16:31;;;;;;;9.27;3.00;;;13.00;47.40;;;;;;4955792;28;20460;-74
2021/10/06 06:18:57;;;;;;;11.90;3.40;;;12.90;48.50;;;;;;4955753;28;21021;-73
2021/10/06 06:21:23;;;;;;;12.90;3.42;;;12.90;49.90;;;;;;4955604;28;20408;-73
2021/10/06 06:23:48;;;;;;;9.40;3.10;;;12.90;50.60;;;;;;4975176;28;20384;-73
2021/10/06 06:26:14;;;;;;;10.03;3.07;;;12.80;52.20;;;;;;4974898;28;20885;-73
2021/10/06 06:28:40;;;;;;;13.43;2.88;;;12.80;52.00;;;;;;4957460;28;20899;-73
2021/10/06 06:31:06;;;;;;;7.38;3.20;;;12.80;50.80;;;;;;4955485;28;20429;-73
2021/10/06 06:33:33;;;;;;;10.77;2.90;;;12.80;50.60;;;;;;4955362;28;20452;-72
2021/10/06 06:35:59;;;;;;;12.73;3.10;;;12.70;53.40;;;;;;4955923;28;20425;-72
2021/10/06 06:38:28;;;;;;;14.65;4.30;;;12.70;54.20;;;;;;4954676;28;20414;-72
2021/10/06 06:40:54;;;;;;;9.90;3.30;;;12.60;56.60;;;;;;4955364;28;20394;-73
2021/10/06 06:43:20;;;;;;;10.20;3.30;;;12.50;57.60;;;;;;4976193;28;20422;-73
2021/10/06 06:45:45;;;;;;;15.77;3.40;;;12.70;58.40;;;;;;4993807;28;20397;-74
2021/10/06 06:48:11;;;;;;;12.80;2.90;;;12.60;57.90;;;;;;4980877;28;20451;-74
2021/10/06 06:50:37;;;;;;;9.93;3.10;;;12.50;59.30;;;;;;4973493;28;20396;-72
2021/10/06 06:53:03;;;;;;;7.43;2.72;;;12.50;62.20;;;;;;4974597;28;20735;-74
2021/10/06 06:55:28;;;;;;;9.25;3.00;;;12.50;59.70;;;;;;4974205;28;20395;-74
2021/10/06 06:57:54;;;;;;;8.68;2.65;;;12.40;63.10;;;;;;4965255;28;20402;-76
2021/10/06 07:00:19;;;;;;;16.85;3.10;;;12.40;62.00;;;;;;4953766;28;20533;-76
2021/10/06 07:02:45;;;;;;;9.60;3.33;;;12.50;59.50;;;;;;4952529;28;20402;-74
2021/10/06 07:05:11;;;;;;;11.93;2.90;;;12.40;62.20;;;;;;4955834;28;20405;-75
2021/10/06 07:07:36;;;;;;;15.93;3.20;;;12.40;61.70;;;;;;4958665;28;20939;-74
2021/10/06 07:10:03;;;;;;;11.50;3.60;;;12.30;63.70;;;;;;4963038;28;20875;-74
2021/10/06 07:12:29;;;;;;;9.55;2.90;;;12.30;64.30;;;;;;4954848;28;20405;-74
2021/10/06 07:14:55;;;;;;;7.78;3.13;;;12.30;64.80;;;;;;4955213;28;20771;-75
2021/10/06 07:17:20;;;;;;;13.73;3.83;;;12.30;66.20;;;;;;4954734;28;20408;-74
2021/10/06 07:19:46;;;;;;;7.38;2.72;;;12.30;67.60;;;;;;4955230;29;20414;-75
2021/10/06 07:22:13;;;;;;;12.00;3.20;;;12.30;64.90;;;;;;4954787;28;20456;-74
2021/10/06 07:24:39;;;;;;;10.38;2.83;;;12.30;64.50;;;;;;4954612;28;20425;-75
2021/10/06 07:27:05;;;;;;;12.00;2.60;;;12.40;61.80;;;;;;4953496;28;20434;-73
2021/10/06 07:29:30;;;;;;;10.32;2.80;;;12.40;62.30;;;;;;4957067;28;20462;-74
2021/10/06 07:31:56;;;;;;;12.30;2.90;;;12.50;62.40;;;;;;4969478;28;20404;-74
2021/10/06 07:34:22;;;;;;;12.30;3.07;;;12.60;61.80;;;;;;4954812;28;20458;-74
2021/10/06 07:36:47;;;;;;;10.10;3.20;;;12.60;62.20;;;;;;4954990;28;20475;-74
2021/10/06 07:39:13;;;;;;;10.07;2.63;;;12.70;61.90;;;;;;4970627;28;20495;-74
2021/10/06 07:41:39;;;;;;;13.60;2.80;;;12.90;59.00;;;;;;4963467;28;20417;-75
2021/10/06 07:44:05;;;;;;;9.33;2.70;;;13.20;54.30;;;;;;4988868;28;20387;-75
2021/10/06 07:46:31;;;;;;;11.55;2.53;;;13.20;53.00;;;;;;4965641;28;20910;-73
2021/10/06 07:48:57;;;;;;;12.85;2.90;;;13.20;53.70;;;;;;4968840;28;20419;-75
2021/10/06 07:51:23;;;;;;;13.53;2.50;;;13.10;54.20;;;;;;4963863;28;20414;-75
2021/10/06 07:53:48;;;;;;;11.75;3.10;;;12.90;56.30;;;;;;4954784;28;20386;-74
2021/10/06 07:56:15;;;;;;;13.55;3.03;;;12.90;56.90;;;;;;4956900;28;20402;-77
2021/10/06 07:58:40;;;;;;;9.15;2.70;;;12.90;57.70;;;;;;4973605;28;20412;-75
2021/10/06 08:01:07;;;;;;;10.48;2.50;;;13.00;54.60;;;;;;4959665;28;20412;-75
2021/10/06 08:03:33;;;;;;;16.85;2.63;;;12.90;54.20;;;;;;4963553;28;20404;-73
2021/10/06 08:05:58;;;;;;;7.27;2.23;;;12.90;53.90;;;;;;4987333;28;20414;-75
2021/10/06 08:08:26;;;;;;;9.13;2.70;;;13.00;53.00;;;;;;4978737;28;20424;-76
2021/10/06 08:10:56;;;;;;;8.37;2.60;;;13.00;51.90;;;;;;4974153;28;20414;-75
2021/10/06 08:13:23;;;;;;;13.20;2.80;;;13.00;52.70;;;;;;4971281;28;20436;-75
2021/10/06 08:15:50;;;;;;;8.63;3.10;;;13.10;50.90;;;;;;4990209;28;20382;-75
2021/10/06 08:18:16;;;;;;;10.43;2.88;;;13.10;50.40;;;;;;4973991;28;20920;-74
2021/10/06 08:20:44;;;;;;;11.82;2.92;;;13.10;51.30;;;;;;4968006;28;20410;-74
2021/10/06 08:23:10;;;;;;;12.38;2.60;;;13.10;51.10;;;;;;4966903;28;20427;-73
2021/10/06 08:25:36;;;;;;;5.18;2.22;;;13.20;49.30;;;;;;4955457;28;20445;-74
2021/10/06 08:28:01;;;;;;;13.48;2.90;;;13.40;45.40;;;;;;4954026;28;20417;-76
2021/10/06 08:30:28;;;;;;;14.07;2.80;;;13.40;46.10;;;;;;4961613;28;20551;-74
2021/10/06 08:32:54;;;;;;;9.73;2.60;;;13.50;45.10;;;;;;4953951;28;20470;-76
2021/10/06 08:35:27;;;;;;;9.45;2.58;;;13.50;45.90;;;;;;5073175;27;20362;-75
2021/10/06 08:37:53;;;;;;;9.20;3.10;;;13.60;45.60;;;;;;5068430;28;20472;-76
2021/10/06 08:40:18;;;;;;;5.00;2.25;;;13.80;45.00;;;;;;5068424;28;20381;-75
2021/10/06 08:42:44;;;;;;;11.13;2.67;;;13.70;43.60;;;;;;5070240;28;20877;-75
2021/10/06 08:45:10;;;;;;;7.93;2.50;;;13.60;44.20;;;;;;5067600;28;20476;-74
2021/10/06 08:47:39;;;;;;;8.73;2.67;;;13.70;45.90;;;;;;5067137;28;20388;-75
2021/10/06 08:50:07;;;;;;;6.93;2.45;;;13.60;46.00;;;;;;5069538;28;20899;-76
2021/10/06 08:52:33;;;;;;;5.40;2.30;;;13.70;46.20;;;;;;5067562;28;20388;-76
2021/10/06 08:55:01;;;;;;;6.65;2.38;;;13.80;43.90;;;;;;5068237;28;20742;-76
2021/10/06 08:57:27;;;;;;;4.45;2.13;;;13.80;44.70;;;;;;5067448;28;20400;-76
2021/10/06 08:59:52;;;;;;;7.03;2.10;;;13.70;43.90;;;;;;5068004;28;20415;-78
2021/10/06 09:02:18;;;;;;;9.23;2.75;;;13.80;43.90;;;;;;5074333;28;20385;-76
2021/10/06 09:04:48;;;;;;;7.88;2.20;;;13.80;42.40;;;;;;5070110;28;20409;-77
2021/10/06 09:07:13;;;;;;;12.35;2.80;;;13.80;42.20;;;;;;5070742;28;20442;-77
2021/10/06 09:09:39;;;;;;;7.70;2.20;;;13.70;42.10;;;;;;5071382;28;20899;-77
2021/10/06 09:12:09;;;;;;;4.70;2.30;;;13.70;42.70;;;;;;5074358;28;20396;-77
2021/10/06 09:14:43;;;;;;;9.63;2.07;;;13.70;44.30;;;;;;5071508;28;20449;-77
2021/10/06 09:17:11;;;;;;;3.60;1.70;;;13.90;42.50;;;;;;5070687;28;20476;-76
2021/10/06 09:19:44;;;;;;;7.40;2.28;;;13.90;42.90;;;;;;5071312;28;20396;-76
2021/10/06 09:22:31;;;;;;;5.70;2.42;;;14.00;43.70;;;;;;5067374;28;20391;-76
2021/10/06 09:25:02;;;;;;;3.72;2.03;;;14.10;42.40;;;;;;5070773;28;20427;-74
2021/10/06 09:27:31;;;;;;;8.27;2.58;;;14.20;41.80;;;;;;5069223;28;20392;-77
2021/10/06 09:29:59;;;;;;;5.60;1.80;;;14.30;42.00;;;;;;5070135;28;20442;-76
2021/10/06 09:32:36;;;;;;;6.60;2.00;;;14.40;40.90;;;;;;5069491;28;20883;-75
2021/10/06 09:35:20;;;;;;;6.88;2.00;;;14.30;40.70;;;;;;5087850;28;20478;-76
2021/10/06 09:37:49;;;;;;;8.40;2.03;;;14.30;42.60;;;;;;5069714;28;20450;-77
2021/10/06 09:40:19;;;;;;;3.35;1.80;;;14.30;41.30;;;;;;5093643;28;20394;-76
2021/10/06 09:42:53;;;;;;;4.90;1.90;;;14.30;41.20;;;;;;5095629;28;20383;-78
2021/10/06 09:45:36;;;;;;;5.65;1.55;;;14.30;40.40;;;;;;5089612;28;20512;-75
2021/10/06 09:48:03;;;;;;;3.90;1.90;;;14.30;42.70;;;;;;5081482;28;20387;-77
2021/10/06 09:50:29;;;;;;;4.50;2.10;;;14.20;43.10;;;;;;5076595;28;20392;-77
2021/10/06 09:52:55;;;;;;;2.95;1.80;;;14.00;43.90;;;;;;5075244;28;20391;-76
2021/10/06 09:55:21;;;;;;;2.60;1.80;;;13.90;45.70;;;;;;5074572;28;20410;-77
2021/10/06 09:57:46;;;;;;;5.50;2.40;;;13.90;47.00;;;;;;5081584;28;20395;-76
2021/10/06 10:00:19;;;;;;;74.90;40.00;;;14.10;47.50;;;;;;5084604;28;20395;-76
2021/10/06 10:02:46;;;;;;;16.60;7.80;;;14.20;47.60;;;;;;5086073;28;20383;-76
2021/10/06 10:05:13;;;;;;;30.27;15.52;;;14.20;45.80;;;;;;5076458;28;20436;-77
2021/10/06 10:07:39;;;;;;;28.07;16.40;;;14.10;47.30;;;;;;5072465;28;20496;-78
2021/10/06 10:10:07;;;;;;;6.65;2.60;;;14.10;48.20;;;;;;5078644;28;20404;-77
2021/10/06 10:12:33;;;;;;;52.60;28.42;;;14.10;46.90;;;;;;5084819;28;20430;-79
2021/10/06 10:15:00;;;;;;;31.37;18.13;;;14.10;49.80;;;;;;5075076;28;20448;-76
2021/10/06 10:17:27;;;;;;;7.15;2.78;;;14.20;47.60;;;;;;5074710;28;20415;-75
2021/10/06 10:19:56;;;;;;;79.05;40.83;;;14.30;46.10;;;;;;5074250;28;20395;-75
2021/10/06 10:22:22;;;;;;;5.95;1.83;;;14.30;47.90;;;;;;5064728;28;20836;-76
2021/10/06 10:24:50;;;;;;;83.75;46.75;;;14.30;44.60;;;;;;5052746;28;20436;-74
2021/10/06 10:27:20;;;;;;;23.00;11.25;;;14.40;45.90;;;;;;5052811;28;20482;-75
2021/10/06 10:29:56;;;;;;;5.70;2.80;;;14.30;45.90;;;;;;5057483;28;20394;-77
2021/10/06 10:32:26;;;;;;;8.10;3.85;;;14.20;45.50;;;;;;5072013;28;20398;-75
2021/10/06 10:35:04;;;;;;;12.23;5.63;;;14.00;47.80;;;;;;5072589;28;20917;-75
2021/10/06 10:37:45;;;;;;;13.20;5.60;;;13.80;50.70;;;;;;5072465;28;20384;-77
2021/10/06 10:40:29;;;;;;;6.88;3.55;;;13.60;52.60;;;;;;5071887;28;20414;-76
2021/10/06 10:43:25;;;;;;;3.50;1.65;;;13.60;55.00;;;;;;5072917;28;20418;-75
2021/10/06 10:46:10;;;;;;;5.38;1.88;;;13.70;53.30;;;;;;5061756;28;20399;-76
2021/10/06 10:49:01;;;;;;;2.97;1.73;;;13.60;56.70;;;;;;5079381;28;20442;-75
2021/10/06 10:51:58;;;;;;;4.00;1.75;;;13.50;55.50;;;;;;5075836;28;20384;-74
2021/10/06 10:54:30;;;;;;;4.70;1.80;;;13.50;57.50;;;;;;5071944;28;20399;-76
2021/10/06 10:56:56;;;;;;;2.55;2.20;;;13.60;56.20;;;;;;5071003;28;20384;-76
2021/10/06 10:59:26;;;;;;;3.30;2.10;;;13.60;56.10;;;;;;5072443;28;20471;-76
2021/10/06 11:01:54;;;;;;;5.53;2.40;;;13.80;54.00;;;;;;5074648;28;20391;-74
2021/10/06 11:04:23;;;;;;;3.60;2.05;;;14.00;55.10;;;;;;5076665;28;20396;-74
2021/10/06 11:06:50;;;;;;;8.07;2.28;;;14.20;54.70;;;;;;5078470;28;20398;-74
2021/10/06 11:09:46;;;;;;;2.47;1.80;;;14.50;49.40;;;;;;5074971;28;20540;-78
2021/10/06 11:12:12;;;;;;;6.30;1.90;;;14.60;46.60;;;;;;5059234;28;20479;-75
2021/10/06 11:14:40;;;;;;;2.50;1.70;;;14.60;47.50;;;;;;5072054;28;20486;-75
2021/10/06 11:17:12;;;;;;;4.60;2.00;;;14.30;48.70;;;;;;5072640;28;20423;-75
2021/10/06 11:19:51;;;;;;;5.60;2.20;;;14.20;50.80;;;;;;5078115;28;20410;-74
2021/10/06 11:22:22;;;;;;;3.95;1.70;;;14.20;49.70;;;;;;5065682;28;20385;-77
2021/10/06 11:24:57;;;;;;;4.17;2.00;;;14.20;51.40;;;;;;5053301;28;20428;-76
2021/10/06 11:27:23;;;;;;;3.78;1.98;;;14.30;50.70;;;;;;5068221;28;20392;-76
2021/10/06 11:29:52;;;;;;;3.80;1.90;;;14.40;48.90;;;;;;5073056;28;20392;-76
2021/10/06 11:32:17;;;;;;;8.60;3.03;;;14.50;48.30;;;;;;5071542;28;20410;-77
2021/10/06 11:34:44;;;;;;;6.03;2.90;;;14.70;46.40;;;;;;5062147;28;20459;-76
2021/10/06 11:37:15;;;;;;;5.77;2.80;;;14.60;47.40;;;;;;5071384;28;20781;-76
2021/10/06 11:39:42;;;;;;;5.43;2.80;;;14.50;47.70;;;;;;5071257;28;20426;-76
2021/10/06 11:42:07;;;;;;;5.82;2.50;;;14.40;49.20;;;;;;5079654;28;20407;-74
2021/10/06 11:44:34;;;;;;;4.25;3.15;;;14.30;50.20;;;;;;5072210;28;20379;-75
2021/10/06 11:47:01;;;;;;;7.05;2.90;;;14.20;49.70;;;;;;5073110;28;20796;-76
2021/10/06 11:49:36;;;;;;;8.20;2.90;;;14.10;50.90;;;;;;5070711;28;20437;-77
2021/10/06 11:52:03;;;;;;;4.82;2.50;;;13.90;52.10;;;;;;5070872;28;20934;-76
2021/10/06 11:54:29;;;;;;;5.87;3.00;;;13.80;52.20;;;;;;5071089;28;20407;-76
2021/10/06 11:56:57;;;;;;;6.00;3.30;;;13.80;53.90;;;;;;5071921;28;20727;-76
2021/10/06 11:59:25;;;;;;;7.60;3.80;;;13.80;55.20;;;;;;5072935;28;20445;-75
2021/10/06 12:01:59;;;;;;;5.95;3.30;;;13.80;54.30;;;;;;5070534;28;20426;-75
2021/10/06 12:04:27;;;;;;;8.00;4.50;;;13.70;55.10;;;;;;5073049;28;20523;-75
2021/10/06 12:07:07;;;;;;;14.60;6.32;;;13.70;54.40;;;;;;5072665;28;20394;-76
2021/10/06 12:09:48;;;;;;;10.15;6.50;;;13.80;54.60;;;;;;5071185;28;20391;-76
2021/10/06 12:12:54;;;;;;;8.75;5.50;;;13.80;53.50;;;;;;5070336;28;20487;-75
2021/10/06 12:15:23;;;;;;;7.72;5.93;;;13.80;52.70;;;;;;5073121;28;20403;-75
2021/10/06 12:17:48;;;;;;;25.55;13.60;;;13.90;53.10;;;;;;5072510;28;20419;-76
2021/10/06 12:20:19;;;;;;;8.47;5.83;;;14.20;51.20;;;;;;5072404;28;20384;-74
2021/10/06 12:22:59;;;;;;;11.90;6.72;;;14.40;48.30;;;;;;5080964;28;20430;-76
2021/10/06 12:25:28;;;;;;;11.67;6.67;;;14.50;47.00;;;;;;5066646;28;20441;-76
2021/10/06 12:28:06;;;;;;;7.23;4.70;;;14.50;48.10;;;;;;5072926;28;20387;-75
2021/10/06 12:30:33;;;;;;;10.43;4.63;;;14.30;50.00;;;;;;5072961;28;20399;-74
2021/10/06 12:33:06;;;;;;;5.75;4.10;;;14.30;50.90;;;;;;5059378;28;20435;-75
2021/10/06 12:35:39;;;;;;;5.43;4.20;;;14.20;51.50;;;;;;5057966;28;20442;-73
2021/10/06 12:38:04;;;;;;;7.32;3.75;;;14.20;53.00;;;;;;5074254;28;20400;-75
2021/10/06 12:40:41;;;;;;;6.32;4.00;;;14.30;54.20;;;;;;5074541;28;20384;-75
2021/10/06 12:43:13;;;;;;;6.93;4.03;;;14.30;53.50;;;;;;5076212;28;20453;-75
2021/10/06 12:46:02;;;;;;;8.55;4.07;;;14.50;53.00;;;;;;5075371;28;20436;-75